Time;durP1;ratioP1;P1;durP2;ratioP2;P2;SDS_P1;SDS_P2;PMS_P1;PMS_P2;Temp;Humidity;BMP_temperature;BMP_pressure;BME280_temperature;BME280_humidity;BME280_pressure;Samples;Min_cycle;Max_cycle;Signal;HPM_P1;HPM_P2
2022/08/19 00:01:33;;;;;;;9.02;6.03;;;17.70;99.90;;;;;;5086290;28;20149;-46
2022/08/19 00:04:07;;;;;;;11.02;6.82;;;17.70;99.90;;;;;;5091210;28;20048;-45
2022/08/19 00:06:37;;;;;;;10.80;6.57;;;17.70;99.90;;;;;;5067177;28;20040;-46
2022/08/19 00:09:05;;;;;;;12.55;7.00;;;17.70;99.90;;;;;;5091635;28;20036;-45
2022/08/19 00:11:34;;;;;;;9.38;6.32;;;17.70;99.90;;;;;;5088329;28;20438;-45
2022/08/19 00:14:01;;;;;;;9.07;6.68;;;17.60;99.90;;;;;;5091730;28;20093;-46
2022/08/19 00:16:28;;;;;;;9.10;6.28;;;17.60;99.90;;;;;;5082257;28;20051;-47
2022/08/19 00:18:55;;;;;;;8.15;6.65;;;17.60;99.90;;;;;;5086625;28;20044;-46
2022/08/19 00:21:23;;;;;;;;;;;17.60;99.90;;;;;;5092258;28;20051;-46
2022/08/19 00:23:50;;;;;;;10.50;7.00;;;17.60;99.90;;;;;;5086812;28;19920;-46
2022/08/19 00:26:16;;;;;;;10.38;6.65;;;17.70;99.90;;;;;;5089884;28;20399;-46
2022/08/19 00:28:43;;;;;;;11.80;6.55;;;17.70;99.90;;;;;;5069309;28;20052;-45
2022/08/19 00:31:10;;;;;;;11.65;7.70;;;17.70;99.90;;;;;;5091417;28;20437;-45
2022/08/19 00:33:37;;;;;;;9.27;6.72;;;17.60;99.90;;;;;;5086819;28;20044;-46
2022/08/19 00:36:07;;;;;;;10.95;6.75;;;17.70;99.90;;;;;;5091760;28;20040;-46
2022/08/19 00:38:35;;;;;;;9.88;7.13;;;17.60;99.90;;;;;;5084151;28;20036;-45
2022/08/19 00:41:05;;;;;;;10.30;6.43;;;17.80;99.90;;;;;;5089783;28;20122;-46
2022/08/19 00:43:32;;;;;;;10.93;6.90;;;17.80;99.90;;;;;;5082870;28;20487;-46
2022/08/19 00:45:59;;;;;;;9.48;6.78;;;17.80;99.90;;;;;;5060877;22;20091;-46
2022/08/19 00:48:26;;;;;;;8.25;6.32;;;17.80;99.90;;;;;;5031316;28;20072;-45
2022/08/19 00:50:55;;;;;;;9.82;6.72;;;17.90;99.90;;;;;;5030943;28;20041;-45
2022/08/19 00:53:26;;;;;;;9.20;6.20;;;17.90;99.90;;;;;;5041529;28;20079;-45
2022/08/19 00:55:56;;;;;;;11.38;6.45;;;17.90;99.90;;;;;;5047983;28;20036;-45
2022/08/19 00:58:28;;;;;;;11.93;6.85;;;17.80;99.90;;;;;;5041595;28;20049;-44
2022/08/19 01:00:55;;;;;;;11.25;6.35;;;17.90;99.90;;;;;;5041475;28;20400;-45
2022/08/19 01:03:23;;;;;;;8.75;6.32;;;17.80;99.90;;;;;;5039961;28;20049;-46
2022/08/19 01:05:51;;;;;;;8.38;5.95;;;17.80;99.90;;;;;;5043310;28;20043;-45
2022/08/19 01:08:19;;;;;;;16.25;6.80;;;17.80;99.90;;;;;;5040757;28;20409;-45
2022/08/19 01:10:55;;;;;;;10.30;6.20;;;17.80;99.90;;;;;;5042711;28;20037;-45
2022/08/19 01:13:32;;;;;;;8.57;5.70;;;17.80;99.90;;;;;;5036574;28;20044;-45
2022/08/19 01:16:18;;;;;;;10.10;6.50;;;17.80;99.90;;;;;;5031502;28;20055;-44
2022/08/19 01:18:45;;;;;;;10.32;6.43;;;17.80;99.90;;;;;;5042219;28;20033;-44
2022/08/19 01:21:32;;;;;;;11.57;6.35;;;17.80;99.90;;;;;;5041826;28;20048;-45
2022/08/19 01:23:59;;;;;;;9.02;6.38;;;17.90;99.90;;;;;;5024947;28;20048;-44
2022/08/19 01:26:27;;;;;;;10.60;6.68;;;17.80;99.90;;;;;;5030110;28;20045;-47
2022/08/19 01:28:59;;;;;;;11.20;6.07;;;17.90;99.90;;;;;;5030901;28;20441;-45
2022/08/19 01:31:31;;;;;;;8.75;6.20;;;17.90;99.90;;;;;;5032524;28;20048;-45
2022/08/19 01:34:00;;;;;;;10.10;6.82;;;17.90;99.90;;;;;;5034541;28;20048;-46
2022/08/19 01:36:33;;;;;;;12.35;6.20;;;17.90;99.90;;;;;;5031433;28;20041;-45
2022/08/19 01:39:03;;;;;;;10.52;6.18;;;18.00;99.90;;;;;;5030965;28;20053;-45
2022/08/19 01:41:30;;;;;;;12.75;6.43;;;18.00;99.90;;;;;;5015414;28;20436;-47
2022/08/19 01:43:56;;;;;;;8.82;5.82;;;18.10;99.90;;;;;;5033885;28;20539;-44
2022/08/19 01:46:43;;;;;;;10.13;6.55;;;18.10;99.90;;;;;;5033919;28;20107;-45
2022/08/19 01:49:10;;;;;;;8.40;5.82;;;18.10;99.90;;;;;;5015941;28;20521;-46
2022/08/19 01:51:38;;;;;;;10.30;6.55;;;18.20;99.90;;;;;;5034769;28;20041;-45
2022/08/19 01:54:08;;;;;;;9.75;6.28;;;18.20;99.90;;;;;;5033797;28;20046;-46
2022/08/19 01:56:35;;;;;;;10.15;6.72;;;18.20;99.90;;;;;;5034801;28;20037;-46
2022/08/19 01:59:06;;;;;;;9.52;6.40;;;18.20;99.90;;;;;;5016314;28;20033;-45
2022/08/19 02:01:34;;;;;;;8.82;6.57;;;18.20;99.90;;;;;;5030478;28;20033;-45
2022/08/19 02:04:01;;;;;;;8.90;6.30;;;18.30;99.90;;;;;;5042194;28;20387;-45
2022/08/19 02:06:29;;;;;;;9.63;6.55;;;18.30;99.90;;;;;;5045553;28;20044;-48
2022/08/19 02:08:56;;;;;;;7.50;6.00;;;18.30;99.90;;;;;;5034597;28;20390;-46
2022/08/19 02:11:26;;;;;;;;;;;18.30;99.90;;;;;;5035572;28;20045;-45
2022/08/19 02:13:54;;;;;;;10.15;6.10;;;18.40;99.90;;;;;;5015088;28;20376;-45
2022/08/19 02:16:21;;;;;;;11.65;6.60;;;18.30;99.90;;;;;;5034139;28;20041;-45
2022/08/19 02:18:48;;;;;;;11.32;6.88;;;18.20;99.90;;;;;;5034084;28;20057;-46
2022/08/19 02:21:16;;;;;;;9.10;6.53;;;18.20;99.90;;;;;;5034411;28;20060;-45
2022/08/19 02:23:44;;;;;;;8.30;5.97;;;18.20;99.90;;;;;;5035108;28;20516;-46
2022/08/19 02:26:12;;;;;;;8.50;5.80;;;18.20;99.90;;;;;;5034195;28;20037;-46
2022/08/19 02:28:39;;;;;;;8.68;6.60;;;18.20;99.90;;;;;;5033917;28;20417;-45
2022/08/19 02:31:14;;;;;;;11.75;7.13;;;18.10;99.90;;;;;;5034050;28;20454;-45
2022/08/19 02:33:41;;;;;;;9.75;7.18;;;18.10;99.90;;;;;;5033903;28;20507;-46
2022/08/19 02:36:09;;;;;;;10.50;6.78;;;18.10;99.90;;;;;;5034130;28;20061;-48
2022/08/19 02:38:36;;;;;;;9.23;6.45;;;18.00;99.90;;;;;;5016657;28;20048;-46
2022/08/19 02:41:26;;;;;;;12.88;7.30;;;18.00;99.90;;;;;;5032804;28;20045;-44
2022/08/19 02:43:56;;;;;;;7.00;5.32;;;18.00;99.90;;;;;;5033300;28;20575;-45
2022/08/19 02:46:46;;;;;;;11.02;6.35;;;18.00;99.90;;;;;;5033486;28;20099;-45
2022/08/19 02:49:15;;;;;;;8.27;7.00;;;18.00;99.90;;;;;;5034285;28;20062;-45
2022/08/19 02:51:44;;;;;;;10.05;6.68;;;18.00;99.90;;;;;;5033280;28;20037;-45
2022/08/19 02:54:13;;;;;;;12.25;8.02;;;17.90;99.90;;;;;;5033010;28;20103;-45
2022/08/19 02:56:42;;;;;;;12.80;8.15;;;17.90;99.90;;;;;;5033934;28;20049;-45
2022/08/19 02:59:09;;;;;;;16.80;7.78;;;17.90;99.90;;;;;;5033000;28;20038;-45
2022/08/19 03:01:39;;;;;;;10.98;7.35;;;17.80;99.90;;;;;;5033485;28;20501;-45
2022/08/19 03:04:07;;;;;;;11.80;7.68;;;17.80;99.90;;;;;;5033042;28;20041;-47
2022/08/19 03:06:37;;;;;;;12.77;8.40;;;17.80;99.90;;;;;;5033126;28;20406;-46
2022/08/19 03:09:04;;;;;;;16.33;8.60;;;17.70;99.90;;;;;;5033491;28;20092;-45
2022/08/19 03:11:31;;;;;;;11.88;8.25;;;17.80;99.90;;;;;;5032189;28;20048;-47
2022/08/19 03:13:59;;;;;;;11.50;8.10;;;17.70;99.90;;;;;;5033097;28;20409;-45
2022/08/19 03:16:29;;;;;;;11.20;7.70;;;17.80;99.90;;;;;;5032053;28;20042;-45
2022/08/19 03:19:00;;;;;;;11.38;7.38;;;17.80;99.90;;;;;;5032394;28;20494;-45
2022/08/19 03:21:29;;;;;;;13.40;7.68;;;17.80;99.90;;;;;;5033140;28;20107;-45
2022/08/19 03:23:58;;;;;;;13.88;8.23;;;17.80;99.90;;;;;;5032776;28;20045;-45
2022/08/19 03:26:25;;;;;;;10.88;7.68;;;17.80;99.90;;;;;;5033177;28;20069;-44
2022/08/19 03:28:52;;;;;;;12.00;8.07;;;17.90;99.90;;;;;;5031995;28;20041;-45
2022/08/19 03:31:26;;;;;;;13.35;7.80;;;17.80;99.90;;;;;;5032417;28;20482;-45
2022/08/19 03:34:18;;;;;;;12.48;7.90;;;17.80;99.90;;;;;;5032510;28;20486;-45
2022/08/19 03:36:46;;;;;;;13.98;8.93;;;17.70;99.90;;;;;;5032904;28;20037;-44
2022/08/19 03:39:13;;;;;;;11.63;8.52;;;17.70;99.90;;;;;;5031744;28;20525;-45
2022/08/19 03:41:43;;;;;;;15.02;8.43;;;17.70;99.90;;;;;;5032235;28;20041;-44
2022/08/19 03:44:17;;;;;;;16.95;9.15;;;17.70;99.90;;;;;;5031664;28;20063;-44
2022/08/19 03:46:46;;;;;;;14.80;9.18;;;17.60;99.90;;;;;;5031697;28;20053;-44
2022/08/19 03:49:14;;;;;;;13.13;8.70;;;17.60;99.90;;;;;;5032407;28;20038;-45
2022/08/19 03:51:42;;;;;;;16.00;8.88;;;17.60;99.90;;;;;;5014073;28;20041;-45
2022/08/19 03:54:13;;;;;;;15.23;9.45;;;17.60;99.90;;;;;;5031755;28;20045;-45
2022/08/19 03:56:41;;;;;;;14.95;9.32;;;17.50;99.90;;;;;;5031366;28;20095;-45
2022/08/19 03:59:13;;;;;;;11.02;8.35;;;17.60;99.90;;;;;;5032061;28;20045;-44
2022/08/19 04:01:40;;;;;;;15.18;9.35;;;17.60;99.90;;;;;;5028222;28;20052;-45
2022/08/19 04:04:07;;;;;;;17.65;10.13;;;17.60;99.90;;;;;;5031096;28;20099;-45
2022/08/19 04:06:38;;;;;;;13.75;9.45;;;17.60;99.90;;;;;;5032943;28;20120;-45
2022/08/19 04:09:09;;;;;;;14.82;9.35;;;17.60;99.90;;;;;;5031302;28;20052;-45
2022/08/19 04:11:50;;;;;;;18.92;10.02;;;17.60;99.90;;;;;;5024674;28;20041;-45
2022/08/19 04:14:18;;;;;;;15.55;9.88;;;17.60;99.90;;;;;;5031112;28;20049;-45
2022/08/19 04:16:47;;;;;;;15.85;9.57;;;17.50;99.90;;;;;;5030755;28;20401;-45
2022/08/19 04:19:15;;;;;;;16.77;10.23;;;17.60;99.90;;;;;;5031793;28;20067;-45
2022/08/19 04:21:47;;;;;;;16.67;9.82;;;17.50;99.90;;;;;;5031106;28;20037;-45
2022/08/19 04:24:14;;;;;;;17.65;10.38;;;17.50;99.90;;;;;;5031801;28;20481;-45
2022/08/19 04:26:42;;;;;;;12.45;9.38;;;17.50;99.90;;;;;;5034761;28;20788;-45
2022/08/19 04:29:21;;;;;;;17.30;10.48;;;17.50;99.90;;;;;;5031813;28;20037;-45
2022/08/19 04:31:48;;;;;;;14.95;10.07;;;17.50;99.90;;;;;;5031810;28;20049;-46
2022/08/19 04:34:17;;;;;;;15.98;9.40;;;17.40;99.90;;;;;;5031656;28;20041;-45
2022/08/19 04:36:45;;;;;;;15.30;9.23;;;17.50;99.90;;;;;;5031633;28;20551;-46
2022/08/19 04:39:16;;;;;;;14.32;9.38;;;17.60;99.90;;;;;;5031981;28;20056;-46
2022/08/19 04:44:36;;;;;;;14.68;9.35;;;17.60;99.90;;;;;;5007838;28;20057;-45
2022/08/19 04:47:12;;;;;;;15.60;9.63;;;17.60;99.90;;;;;;5028750;28;20037;-45
2022/08/19 04:49:38;;;;;;;15.02;9.13;;;17.70;99.90;;;;;;5030673;28;20056;-45
2022/08/19 04:52:05;;;;;;;12.88;9.43;;;17.70;99.90;;;;;;5030498;28;20099;-45
2022/08/19 04:54:32;;;;;;;13.63;8.95;;;17.60;99.90;;;;;;5028609;28;20390;-45
2022/08/19 04:57:09;;;;;;;15.23;9.52;;;17.70;99.90;;;;;;5029465;28;20025;-45
2022/08/19 04:59:38;;;;;;;12.57;8.40;;;17.70;99.90;;;;;;5027323;28;20033;-48
2022/08/19 05:02:06;;;;;;;12.88;8.77;;;17.70;99.90;;;;;;5028656;28;20048;-46
2022/08/19 05:04:33;;;;;;;13.90;8.40;;;17.70;99.90;;;;;;5028862;28;20052;-45
2022/08/19 05:07:00;;;;;;;12.23;7.70;;;17.70;99.90;;;;;;5027991;28;20046;-45
2022/08/19 05:09:29;;;;;;;12.10;8.30;;;17.70;99.90;;;;;;5029910;28;20049;-45
2022/08/19 05:12:16;;;;;;;11.45;8.45;;;17.70;99.90;;;;;;5030924;28;20095;-45
2022/08/19 05:14:44;;;;;;;14.68;7.97;;;17.70;99.90;;;;;;5037173;28;20501;-45
2022/08/19 05:17:11;;;;;;;11.52;8.63;;;17.70;99.90;;;;;;5031316;28;20189;-45
2022/08/19 05:22:41;;;;;;;14.45;9.32;;;17.70;99.90;;;;;;5038088;28;20095;-46
2022/08/19 05:25:18;;;;;;;12.88;9.48;;;17.60;99.90;;;;;;5031388;28;20549;-45
2022/08/19 05:27:45;;;;;;;20.90;10.27;;;17.60;99.90;;;;;;5030655;28;20041;-45
2022/08/19 05:30:12;;;;;;;;;;;17.60;99.90;;;;;;5029447;28;20160;-45
2022/08/19 05:32:40;;;;;;;19.17;11.27;;;17.60;99.90;;;;;;5031627;28;19921;-45
2022/08/19 05:35:07;;;;;;;21.55;9.75;;;17.60;99.90;;;;;;5029461;28;20042;-45
2022/08/19 05:37:34;;;;;;;15.73;9.18;;;17.60;99.90;;;;;;5030008;28;20049;-45
2022/08/19 05:40:01;;;;;;;13.20;9.52;;;17.60;99.90;;;;;;5028455;28;20041;-45
2022/08/19 05:42:28;;;;;;;;;;;17.60;99.90;;;;;;5030420;28;20041;-46
2022/08/19 05:44:55;;;;;;;16.60;10.15;;;17.60;99.90;;;;;;5029348;28;19921;-45
2022/08/19 05:47:22;;;;;;;17.70;10.88;;;17.60;99.90;;;;;;5030960;28;20046;-45
2022/08/19 05:49:51;;;;;;;17.83;10.82;;;17.50;99.90;;;;;;5038028;28;20563;-45
2022/08/19 05:52:18;;;;;;;21.05;11.20;;;17.60;99.90;;;;;;5029741;28;20064;-45
2022/08/19 05:54:54;;;;;;;22.65;13.00;;;17.60;99.90;;;;;;5030711;28;20405;-45
2022/08/19 05:57:21;;;;;;;19.88;11.20;;;17.60;99.90;;;;;;5030155;28;20046;-45
2022/08/19 05:59:51;;;;;;;20.00;11.85;;;17.60;99.90;;;;;;5031076;28;20046;-44
2022/08/19 06:02:30;;;;;;;19.50;11.32;;;17.60;99.90;;;;;;5038076;28;20069;-46
2022/08/19 06:04:57;;;;;;;20.23;12.40;;;17.60;99.90;;;;;;5030380;28;20051;-45
2022/08/19 06:07:24;;;;;;;22.83;13.02;;;17.60;99.90;;;;;;5030332;28;20041;-46
2022/08/19 06:09:51;;;;;;;20.60;12.63;;;17.60;99.90;;;;;;5030943;28;20041;-45
2022/08/19 06:12:32;;;;;;;20.88;12.68;;;17.60;99.90;;;;;;5029832;28;20045;-45
2022/08/19 06:15:08;;;;;;;23.92;12.50;;;17.70;99.90;;;;;;5030397;28;20041;-45
2022/08/19 06:17:36;;;;;;;24.88;13.52;;;17.60;99.90;;;;;;5034641;28;20044;-46
2022/08/19 06:20:05;;;;;;;22.73;13.32;;;17.50;99.90;;;;;;5029267;28;20041;-45
2022/08/19 06:22:45;;;;;;;27.17;14.20;;;17.50;99.90;;;;;;5030118;28;20124;-45
2022/08/19 06:25:14;;;;;;;26.70;13.98;;;17.50;99.90;;;;;;5035887;28;20464;-45
2022/08/19 06:27:41;;;;;;;19.83;13.20;;;17.60;99.90;;;;;;5034322;28;20061;-45
2022/08/19 06:30:28;;;;;;;21.10;13.73;;;17.60;99.90;;;;;;5034086;28;20053;-45
2022/08/19 06:32:54;;;;;;;22.38;13.60;;;17.70;99.90;;;;;;5037636;28;20048;-45
2022/08/19 06:35:21;;;;;;;25.35;14.57;;;17.70;99.90;;;;;;5033593;28;20041;-45
2022/08/19 06:37:48;;;;;;;31.60;16.35;;;17.80;99.90;;;;;;5034270;28;20091;-45
2022/08/19 06:40:15;;;;;;;31.25;15.70;;;17.90;99.90;;;;;;5032124;28;20049;-45
2022/08/19 06:42:42;;;;;;;25.73;14.82;;;17.80;99.90;;;;;;5033926;28;20057;-45
2022/08/19 06:45:21;;;;;;;22.42;14.10;;;17.80;99.90;;;;;;5053926;22;20052;-45
2022/08/19 06:51:37;;;;;;;18.17;11.50;;;17.90;99.90;;;;;;5058826;28;20404;-45
2022/08/19 06:54:10;;;;;;;15.75;9.93;;;18.00;99.90;;;;;;5071697;28;20032;-45
2022/08/19 06:56:45;;;;;;;14.40;10.00;;;17.90;99.90;;;;;;5073707;28;20479;-45
2022/08/19 06:59:15;;;;;;;16.05;9.80;;;17.70;99.90;;;;;;5058828;28;20067;-45
2022/08/19 07:01:48;;;;;;;11.40;7.32;;;17.80;99.90;;;;;;5053690;28;20045;-45
2022/08/19 07:04:21;;;;;;;7.10;5.38;;;17.60;99.90;;;;;;5043850;28;20077;-45
2022/08/19 07:06:50;;;;;;;7.95;5.13;;;17.50;99.90;;;;;;5065704;28;20045;-45
2022/08/19 07:09:21;;;;;;;8.82;5.70;;;17.40;99.90;;;;;;5062909;28;20489;-46
2022/08/19 07:11:50;;;;;;;9.85;6.45;;;17.40;99.90;;;;;;5073304;28;20053;-45
2022/08/19 07:14:20;;;;;;;8.50;5.75;;;17.40;99.90;;;;;;5071619;28;20041;-45
2022/08/19 07:16:50;;;;;;;9.10;5.85;;;17.40;99.90;;;;;;5073569;28;20036;-46
2022/08/19 07:19:19;;;;;;;8.20;5.00;;;17.50;99.90;;;;;;5069645;28;20381;-45
2022/08/19 07:21:48;;;;;;;7.75;5.50;;;17.50;99.90;;;;;;5055372;28;20044;-45
2022/08/19 07:24:17;;;;;;;6.85;4.70;;;17.60;99.90;;;;;;5069232;28;20095;-45
2022/08/19 07:26:44;;;;;;;8.10;4.55;;;17.60;99.90;;;;;;5072904;28;20041;-45
2022/08/19 07:29:12;;;;;;;7.13;5.32;;;17.70;99.90;;;;;;5072075;28;20051;-45
2022/08/19 07:31:39;;;;;;;16.77;5.65;;;17.70;99.90;;;;;;5073002;28;20067;-45
2022/08/19 07:34:11;;;;;;;8.07;5.40;;;17.90;99.90;;;;;;5060002;28;20123;-45
2022/08/19 07:36:41;;;;;;;8.52;5.22;;;17.90;99.90;;;;;;5072918;28;20470;-46
2022/08/19 07:39:16;;;;;;;9.73;5.00;;;18.10;99.90;;;;;;5072488;28;20048;-45
2022/08/19 07:41:43;;;;;;;9.35;4.65;;;18.30;99.90;;;;;;5062043;28;20059;-45
2022/08/19 07:44:11;;;;;;;8.43;5.40;;;18.40;99.90;;;;;;5063302;28;20520;-45
2022/08/19 07:46:40;;;;;;;7.75;4.30;;;18.60;99.90;;;;;;5051691;28;20048;-45
2022/08/19 07:49:13;;;;;;;5.85;4.22;;;18.60;99.90;;;;;;5045293;28;20041;-46
2022/08/19 07:51:40;;;;;;;5.93;4.07;;;18.60;99.90;;;;;;5034356;28;20052;-48
2022/08/19 07:54:06;;;;;;;5.57;4.07;;;18.60;99.90;;;;;;5051827;28;20045;-45
2022/08/19 07:56:33;;;;;;;9.43;4.57;;;18.60;99.90;;;;;;5051686;28;20062;-45
2022/08/19 07:59:00;;;;;;;5.57;4.22;;;18.60;99.90;;;;;;5057907;28;20041;-45
2022/08/19 08:01:27;;;;;;;6.90;4.93;;;18.60;99.90;;;;;;5056024;28;20044;-45
2022/08/19 08:09:32;;;;;;;6.00;4.10;;;18.60;99.90;;;;;;5060353;28;20048;-45
2022/08/19 08:12:06;;;;;;;7.15;4.65;;;18.70;99.90;;;;;;5071619;28;20044;-45
2022/08/19 08:14:55;;;;;;;9.65;5.60;;;18.90;99.90;;;;;;5044562;28;20438;-45
2022/08/19 08:17:25;;;;;;;8.65;5.50;;;19.20;99.90;;;;;;5055192;28;20045;-46
2022/08/19 08:20:13;;;;;;;6.93;4.82;;;19.30;99.90;;;;;;5060898;28;20037;-47
2022/08/19 08:25:31;;;;;;;7.32;4.55;;;19.20;99.90;;;;;;5066459;28;20051;-46
2022/08/19 08:27:59;;;;;;;6.85;4.72;;;19.10;99.90;;;;;;5071780;28;20041;-45
2022/08/19 08:30:28;;;;;;;12.63;4.97;;;19.10;99.90;;;;;;5070564;28;20120;-45
2022/08/19 08:32:59;;;;;;;6.72;4.85;;;19.20;99.90;;;;;;5070937;28;20054;-46
2022/08/19 08:35:28;;;;;;;6.55;5.40;;;19.50;99.90;;;;;;5066562;28;20519;-48
2022/08/19 08:37:56;;;;;;;7.57;4.65;;;19.60;99.90;;;;;;5071358;28;20036;-45
2022/08/19 08:40:32;;;;;;;7.88;4.82;;;19.60;99.90;;;;;;5060731;28;20127;-46
2022/08/19 08:43:04;;;;;;;10.27;5.95;;;19.50;99.90;;;;;;5068110;28;20041;-45
2022/08/19 08:45:43;;;;;;;9.95;5.30;;;19.70;99.90;;;;;;5069685;28;20500;-46
2022/08/19 08:48:35;;;;;;;7.00;5.10;;;19.70;99.90;;;;;;5070755;28;20135;-45
2022/08/19 08:51:07;;;;;;;9.02;5.10;;;19.90;99.90;;;;;;5067853;28;20055;-46
2022/08/19 08:53:36;;;;;;;7.40;5.50;;;20.00;99.90;;;;;;5070574;28;20409;-46
2022/08/19 08:56:12;;;;;;;7.38;4.63;;;20.20;99.90;;;;;;5066618;28;20540;-46
2022/08/19 08:58:44;;;;;;;6.90;4.82;;;20.50;99.90;;;;;;5071185;28;20036;-46
2022/08/19 09:01:12;;;;;;;7.07;4.18;;;20.70;99.90;;;;;;5055239;28;20088;-46
2022/08/19 09:03:42;;;;;;;5.00;3.88;;;20.90;99.90;;;;;;5070830;28;20051;-46
2022/08/19 09:06:23;;;;;;;8.05;3.55;;;20.80;99.90;;;;;;5070243;28;20047;-46
2022/08/19 09:09:04;;;;;;;7.43;3.70;;;21.00;99.90;;;;;;5058557;28;20044;-46
2022/08/19 09:11:48;;;;;;;4.75;3.08;;;21.00;99.90;;;;;;5045405;28;20444;-45
2022/08/19 09:14:40;;;;;;;9.38;3.53;;;21.20;99.90;;;;;;5070219;28;20037;-46
2022/08/19 09:17:30;;;;;;;4.78;3.20;;;21.90;99.90;;;;;;5053843;28;20091;-46
2022/08/19 09:20:21;;;;;;;5.55;3.20;;;22.60;99.90;;;;;;5064112;28;20041;-46
2022/08/19 09:22:49;;;;;;;6.00;3.95;;;22.60;99.90;;;;;;5050443;28;20056;-46
2022/08/19 09:25:22;;;;;;;5.63;4.00;;;22.80;99.90;;;;;;5048809;28;20055;-46
2022/08/19 09:27:56;;;;;;;4.25;3.85;;;23.00;99.90;;;;;;5033445;28;20440;-46
2022/08/19 09:30:32;;;;;;;4.95;4.32;;;23.30;99.90;;;;;;5067161;28;20049;-46
2022/08/19 09:32:59;;;;;;;5.30;4.40;;;23.50;99.90;;;;;;5050748;28;20045;-46
2022/08/19 09:35:29;;;;;;;7.68;3.83;;;23.40;99.90;;;;;;5047869;28;20037;-45
2022/08/19 09:37:58;;;;;;;6.05;3.50;;;23.50;99.90;;;;;;5033451;28;20041;-46
2022/08/19 09:40:29;;;;;;;5.57;4.20;;;23.40;99.90;;;;;;5050736;28;20041;-46
2022/08/19 09:43:03;;;;;;;5.30;4.50;;;23.20;99.90;;;;;;5057615;28;20040;-46
2022/08/19 09:45:39;;;;;;;5.93;4.85;;;23.10;99.90;;;;;;5070381;28;20122;-46
2022/08/19 09:48:06;;;;;;;5.03;4.50;;;23.00;99.90;;;;;;5054167;28;20053;-46
2022/08/19 09:50:34;;;;;;;6.25;4.93;;;22.90;99.90;;;;;;5060730;28;20394;-46
2022/08/19 09:53:01;;;;;;;6.97;4.88;;;22.80;99.90;;;;;;5051696;28;20294;-46
2022/08/19 09:55:28;;;;;;;7.22;4.15;;;22.60;99.90;;;;;;5070249;28;20041;-46
2022/08/19 09:58:02;;;;;;;5.60;3.67;;;22.50;99.90;;;;;;5050312;28;20038;-46
2022/08/19 10:00:30;;;;;;;4.50;3.75;;;22.60;99.90;;;;;;5071024;28;20051;-46
2022/08/19 10:02:57;;;;;;;7.38;3.47;;;22.60;99.90;;;;;;5070612;28;20053;-46
2022/08/19 10:08:11;;;;;;;6.53;4.10;;;22.90;99.90;;;;;;5058705;28;20044;-46
2022/08/19 10:10:44;;;;;;;3.75;3.25;;;23.00;99.90;;;;;;5054286;28;20056;-46
2022/08/19 10:13:15;;;;;;;4.70;3.58;;;23.10;99.90;;;;;;5052005;28;20408;-46
2022/08/19 10:15:42;;;;;;;6.13;3.95;;;23.00;99.90;;;;;;5060728;28;20044;-46
2022/08/19 10:18:17;;;;;;;7.07;4.68;;;23.00;99.90;;;;;;5072770;28;20407;-46
2022/08/19 10:20:46;;;;;;;5.28;4.20;;;23.00;99.90;;;;;;5050444;28;20499;-46
2022/08/19 10:23:20;;;;;;;5.55;4.28;;;23.00;99.90;;;;;;5063651;28;20080;-46
2022/08/19 10:25:48;;;;;;;5.95;4.63;;;22.80;99.90;;;;;;5052780;28;20068;-47
2022/08/19 10:28:14;;;;;;;7.15;5.05;;;22.70;99.90;;;;;;5054338;28;20049;-46
2022/08/19 10:30:44;;;;;;;5.65;4.68;;;22.60;99.90;;;;;;5044157;28;20505;-46
2022/08/19 10:33:11;;;;;;;4.95;3.70;;;22.90;99.90;;;;;;5067761;28;20040;-46
2022/08/19 10:35:38;;;;;;;6.03;4.82;;;23.20;99.90;;;;;;5053393;28;20047;-46
2022/08/19 10:38:23;;;;;;;5.35;4.05;;;23.30;99.90;;;;;;5053970;28;20045;-46
2022/08/19 10:40:58;;;;;;;8.27;4.60;;;23.20;99.90;;;;;;5054964;28;20037;-46
2022/08/19 10:43:24;;;;;;;;;;;23.20;99.90;;;;;;5074537;28;20049;-46
2022/08/19 10:45:56;;;;;;;8.23;5.35;;;23.20;99.90;;;;;;5072955;28;19928;-46
2022/08/19 10:48:22;;;;;;;6.85;5.70;;;23.20;99.90;;;;;;5062517;28;20060;-46
2022/08/19 10:53:35;;;;;;;8.93;4.63;;;23.20;99.90;;;;;;5057504;28;20052;-45
2022/08/19 10:58:48;;;;;;;7.22;4.75;;;23.30;99.90;;;;;;5067487;28;20044;-46
2022/08/19 11:01:15;;;;;;;6.22;4.65;;;23.40;99.90;;;;;;5072424;28;20052;-46
2022/08/19 11:03:42;;;;;;;5.07;4.57;;;23.60;99.90;;;;;;5073276;28;20048;-46
2022/08/19 11:06:09;;;;;;;8.15;4.32;;;23.60;99.90;;;;;;5062642;28;20374;-46
2022/08/19 11:08:37;;;;;;;7.45;4.78;;;23.70;99.90;;;;;;5069448;28;20503;-45
2022/08/19 11:11:06;;;;;;;8.60;5.18;;;23.70;99.90;;;;;;5052465;28;20420;-46
2022/08/19 11:13:36;;;;;;;6.32;4.65;;;23.70;99.90;;;;;;5050520;28;20127;-46
2022/08/19 11:16:15;;;;;;;5.78;4.55;;;23.70;99.90;;;;;;5064861;28;20040;-46
2022/08/19 11:18:44;;;;;;;4.90;4.13;;;23.50;99.90;;;;;;5073424;28;20044;-46
2022/08/19 11:21:17;;;;;;;5.68;5.03;;;23.50;99.90;;;;;;5056519;28;20672;-46
2022/08/19 11:23:45;;;;;;;7.13;5.43;;;23.60;99.90;;;;;;5048961;28;20554;-46
2022/08/19 11:26:12;;;;;;;6.03;4.75;;;23.50;99.90;;;;;;5070590;28;20489;-46
2022/08/19 11:28:39;;;;;;;;;;;23.70;99.90;;;;;;5052745;28;20037;-46
2022/08/19 11:31:17;;;;;;;6.18;4.72;;;23.80;99.90;;;;;;5053095;28;19924;-46
2022/08/19 11:33:44;;;;;;;6.50;5.72;;;23.90;99.90;;;;;;5044633;28;20044;-46
2022/08/19 11:36:13;;;;;;;6.38;4.57;;;24.00;99.90;;;;;;5069150;28;20098;-46
2022/08/19 11:38:40;;;;;;;7.10;4.78;;;24.00;99.90;;;;;;5052761;28;20049;-48
2022/08/19 11:41:08;;;;;;;7.82;3.95;;;24.00;99.90;;;;;;5053122;28;20520;-48
2022/08/19 11:43:35;;;;;;;7.80;4.65;;;24.10;99.90;;;;;;5053903;28;20044;-46
2022/08/19 11:46:06;;;;;;;11.35;4.53;;;24.30;99.90;;;;;;5051699;28;20040;-46
2022/08/19 11:48:34;;;;;;;6.18;3.92;;;24.30;99.90;;;;;;5052532;28;20048;-47
2022/08/19 11:51:05;;;;;;;4.68;3.38;;;24.30;99.90;;;;;;5065259;28;20044;-45
2022/08/19 11:53:34;;;;;;;4.15;3.63;;;24.30;99.90;;;;;;5072219;28;20040;-46
2022/08/19 11:56:01;;;;;;;8.55;4.38;;;24.30;99.90;;;;;;5072196;28;20049;-45
2022/08/19 11:58:29;;;;;;;4.60;3.63;;;24.30;99.90;;;;;;5072673;28;20090;-46
2022/08/19 12:00:56;;;;;;;7.70;5.10;;;24.20;99.90;;;;;;5049050;28;20041;-46
2022/08/19 12:03:23;;;;;;;8.57;4.97;;;24.10;99.90;;;;;;5051899;28;20045;-46
2022/08/19 12:05:50;;;;;;;10.18;5.90;;;24.10;99.90;;;;;;5049449;28;20523;-46
2022/08/19 12:08:18;;;;;;;7.97;5.68;;;24.20;99.90;;;;;;5052262;28;20045;-46
2022/08/19 12:10:45;;;;;;;6.13;4.72;;;24.40;99.90;;;;;;5050528;28;20041;-47
2022/08/19 12:13:18;;;;;;;5.22;4.00;;;24.60;99.90;;;;;;5051727;28;20048;-46
2022/08/19 12:15:47;;;;;;;8.30;5.40;;;24.60;99.90;;;;;;5050409;28;20033;-46
2022/08/19 12:18:14;;;;;;;5.72;4.15;;;24.70;99.90;;;;;;5051713;28;20142;-46
2022/08/19 12:20:42;;;;;;;9.75;5.25;;;24.60;99.90;;;;;;5049640;28;20045;-46
2022/08/19 12:23:10;;;;;;;7.68;4.80;;;24.30;99.90;;;;;;5051197;28;20401;-48
2022/08/19 12:25:42;;;;;;;5.88;4.07;;;24.30;99.90;;;;;;5051069;28;20135;-46
2022/08/19 12:28:09;;;;;;;3.85;3.25;;;24.40;99.90;;;;;;5052862;28;20052;-46
2022/08/19 12:30:38;;;;;;;3.95;3.15;;;24.40;99.90;;;;;;5050394;28;20492;-46
2022/08/19 12:33:05;;;;;;;5.43;3.47;;;24.60;99.90;;;;;;5051363;28;20497;-46
2022/08/19 12:35:31;;;;;;;5.97;4.65;;;24.70;99.90;;;;;;5053910;28;20493;-46
2022/08/19 12:37:58;;;;;;;5.53;4.43;;;24.70;99.90;;;;;;5053711;28;20044;-46
2022/08/19 12:40:26;;;;;;;10.15;5.22;;;24.60;99.90;;;;;;5051347;28;20080;-46
2022/08/19 12:42:53;;;;;;;6.47;5.00;;;24.40;99.90;;;;;;5051282;28;20106;-45
2022/08/19 12:45:21;;;;;;;6.47;4.70;;;24.20;99.90;;;;;;5078920;22;20099;-45
2022/08/19 12:47:48;;;;;;;5.68;4.57;;;24.30;99.90;;;;;;5127846;27;20046;-45
2022/08/19 12:50:15;;;;;;;8.07;4.38;;;24.30;99.90;;;;;;5130414;27;20046;-45
2022/08/19 12:52:42;;;;;;;;;;;24.30;99.90;;;;;;5130905;27;20043;-45
2022/08/19 12:55:11;;;;;;;8.07;6.00;;;24.20;99.90;;;;;;5131892;27;19958;-47
2022/08/19 12:57:38;;;;;;;9.52;5.00;;;24.20;99.90;;;;;;5148703;27;20035;-46
2022/08/19 13:00:13;;;;;;;7.50;5.18;;;24.10;99.90;;;;;;5148851;27;20057;-45
2022/08/19 13:02:43;;;;;;;7.63;4.80;;;24.00;99.90;;;;;;5146761;27;20035;-45
2022/08/19 13:05:14;;;;;;;5.13;4.13;;;23.90;99.90;;;;;;5147714;27;20509;-46
2022/08/19 13:07:43;;;;;;;6.53;4.35;;;23.70;99.90;;;;;;5152540;27;20436;-47
2022/08/19 13:10:12;;;;;;;5.40;4.88;;;23.60;99.90;;;;;;5148068;27;20047;-45
2022/08/19 13:12:40;;;;;;;6.63;4.60;;;23.50;99.90;;;;;;5148808;27;20042;-46
2022/08/19 13:15:08;;;;;;;7.32;4.57;;;23.40;99.90;;;;;;5151744;27;20041;-47
2022/08/19 13:17:37;;;;;;;5.95;4.30;;;23.20;99.90;;;;;;5152379;27;20117;-45
2022/08/19 13:20:07;;;;;;;5.50;4.00;;;23.20;99.90;;;;;;5145042;27;20095;-46
2022/08/19 13:22:35;;;;;;;7.03;3.92;;;23.10;99.90;;;;;;5150134;27;20036;-45
2022/08/19 13:25:05;;;;;;;5.57;4.47;;;23.00;99.90;;;;;;5151705;27;20379;-46